createdAt,value
2023-05-10T00:04:48.400Z,100862.38
2023-05-10T00:09:53.022Z,100861.63
2023-05-10T00:14:56.009Z,100856.28
2023-05-10T00:19:59.090Z,100856.25
2023-05-10T00:25:03.923Z,100842.75
2023-05-10T00:30:08.366Z,100854.50
2023-05-10T00:35:11.899Z,100859.09
2023-05-10T00:40:16.942Z,100863.59
2023-05-10T00:45:26.171Z,100875.00
2023-05-10T00:50:29.690Z,100863.66
2023-05-10T00:55:34.133Z,100845.91
2023-05-10T01:00:39.660Z,100851.34
2023-05-10T01:05:42.697Z,100852.31
2023-05-10T01:10:50.163Z,100858.50
2023-05-10T01:15:53.396Z,100847.94
2023-05-10T01:21:06.504Z,100866.50
2023-05-10T01:26:54.369Z,100870.88
2023-05-10T01:32:23.736Z,100854.16
2023-05-10T01:37:36.047Z,100869.22
2023-05-10T01:42:45.239Z,100862.13
2023-05-10T01:47:53.782Z,100874.34
2023-05-10T01:52:59.776Z,100882.28
2023-05-10T01:58:06.796Z,100877.00
2023-05-10T02:03:13.197Z,100878.72
2023-05-10T02:08:18.498Z,100872.47
2023-05-10T02:13:22.163Z,100878.72
2023-05-10T02:18:29.206Z,100885.88
2023-05-10T02:23:33.718Z,100895.53
2023-05-10T02:28:39.125Z,100891.09
2023-05-10T02:33:46.521Z,100889.38
2023-05-10T02:38:51.027Z,100867.06
2023-05-10T02:43:58.102Z,100890.31
2023-05-10T02:49:02.720Z,100899.91
2023-05-10T02:54:12.980Z,100897.38
2023-05-10T02:59:16.327Z,100893.88
2023-05-10T03:04:20.987Z,100896.63
2023-05-10T03:09:24.483Z,100891.25
2023-05-10T03:14:44.673Z,100889.44
2023-05-10T03:19:55.250Z,100904.53
2023-05-10T03:25:00.047Z,100908.00
2023-05-10T03:30:07.773Z,100907.16
2023-05-10T03:35:14.175Z,100900.88
2023-05-10T03:40:18.227Z,100905.19
2023-05-10T03:45:21.866Z,100918.56
2023-05-10T03:50:27.276Z,100923.59
2023-05-10T03:55:30.514Z,100903.09
2023-05-10T04:00:34.049Z,100933.13
2023-05-10T04:05:39.386Z,100927.91
2023-05-10T04:10:43.026Z,100912.81
2023-05-10T04:15:46.111Z,100928.81
2023-05-10T04:20:50.911Z,100914.50
2023-05-10T04:25:53.849Z,100919.94
2023-05-10T04:31:03.486Z,100918.81
2023-05-10T04:36:08.428Z,100927.69
2023-05-10T04:41:12.728Z,100927.50
2023-05-10T04:46:15.758Z,100932.66
2023-05-10T04:51:20.304Z,100930.00
2023-05-10T04:56:23.533Z,100939.69
2023-05-10T05:01:26.611Z,100943.28
2023-05-10T05:06:31.263Z,100946.88
2023-05-10T05:11:34.753Z,100941.66
2023-05-10T05:16:37.864Z,100949.75
2023-05-10T05:21:42.231Z,100960.97
2023-05-10T05:26:45.229Z,100968.03
2023-05-10T05:31:48.653Z,100968.78
2023-05-10T05:36:53.132Z,100974.59
2023-05-10T05:41:56.099Z,100980.69
2023-05-10T05:46:59.134Z,100978.31
2023-05-10T05:52:04.209Z,100991.44
2023-05-10T05:57:07.649Z,100988.47
2023-05-10T06:02:11.046Z,100999.91
2023-05-10T06:07:15.539Z,100999.75
2023-05-10T06:12:18.830Z,101007.34
2023-05-10T06:17:22.814Z,101001.25
2023-05-10T06:22:27.596Z,101011.97
2023-05-10T06:27:30.775Z,101019.00
2023-05-10T06:32:34.046Z,101021.88
2023-05-10T06:37:38.362Z,101025.06
2023-05-10T06:42:41.510Z,101031.56
2023-05-10T06:47:44.650Z,101042.22
2023-05-10T06:52:50.596Z,101028.63
2023-05-10T06:57:54.963Z,101032.56
2023-05-10T07:02:58.037Z,101039.03
2023-05-10T07:08:02.740Z,101041.94
2023-05-10T07:13:05.872Z,101058.91
2023-05-10T07:18:09.128Z,101053.28
2023-05-10T07:23:13.890Z,101063.41
2023-05-10T07:28:18.184Z,101065.78
2023-05-10T07:33:21.419Z,101067.91
2023-05-10T07:38:26.176Z,101055.25
2023-05-10T07:43:29.118Z,101052.13
2023-05-10T07:48:32.421Z,101067.13
2023-05-10T07:53:36.836Z,101073.25
2023-05-10T07:58:40.000Z,101080.22
2023-05-10T08:03:43.172Z,101089.88
2023-05-10T08:08:50.490Z,101088.78
2023-05-10T08:13:53.929Z,101098.81
2023-05-10T08:18:57.392Z,101108.75
2023-05-10T08:24:02.070Z,101116.84
2023-05-10T08:29:05.250Z,101121.09
2023-05-10T08:34:08.318Z,101122.06
2023-05-10T08:39:22.841Z,101123.16
2023-05-10T08:44:36.297Z,101118.63
2023-05-10T08:49:39.967Z,101128.09
2023-05-10T08:54:44.940Z,101132.88
2023-05-10T08:59:48.540Z,101131.63
2023-05-10T09:04:51.962Z,101130.84
2023-05-10T09:09:56.966Z,101137.69
2023-05-10T09:15:01.843Z,101133.47
2023-05-10T09:20:06.750Z,101138.81
2023-05-10T09:25:13.967Z,101140.97
2023-05-10T09:30:19.038Z,101145.97
2023-05-10T09:35:25.076Z,101149.84
2023-05-10T09:40:32.114Z,101155.81
2023-05-10T09:45:38.241Z,101158.63
2023-05-10T09:50:42.752Z,101159.56
2023-05-10T09:55:50.592Z,101174.41
2023-05-10T10:00:54.861Z,101160.91
2023-05-10T10:05:58.060Z,101179.19
2023-05-10T10:11:03.285Z,101169.09
2023-05-10T10:16:07.034Z,101187.94
2023-05-10T10:21:10.510Z,101195.88
2023-05-10T10:26:19.833Z,101194.06
2023-05-10T10:31:31.313Z,101199.09
2023-05-10T10:36:35.885Z,101201.34
2023-05-10T10:41:44.999Z,101191.28
2023-05-10T10:47:10.302Z,101191.56
2023-05-10T10:52:22.566Z,101193.31
2023-05-10T10:57:28.479Z,101201.19
2023-05-10T11:02:47.006Z,101194.13
2023-05-10T11:07:57.558Z,101180.94
2023-05-10T11:13:03.475Z,101190.28
2023-05-10T11:18:19.867Z,101195.03
2023-05-10T11:23:23.889Z,101197.16
2023-05-10T11:28:29.370Z,101204.25
2023-05-10T11:33:32.587Z,101208.88
2023-05-10T11:38:35.616Z,101217.06
2023-05-10T11:43:41.484Z,101209.28
2023-05-10T11:48:44.866Z,101212.84
2023-05-10T11:53:47.934Z,101211.19
2023-05-10T11:58:58.508Z,101230.00
2023-05-10T12:04:02.564Z,101229.09
2023-05-10T12:09:11.250Z,101238.31
2023-05-10T12:14:16.848Z,101234.25
2023-05-10T12:19:24.372Z,101238.00
2023-05-10T12:24:27.512Z,101244.38
2023-05-10T12:29:32.722Z,101235.63
2023-05-10T12:34:38.290Z,101244.69
2023-05-10T12:39:42.367Z,101247.22
2023-05-10T12:44:46.762Z,101242.41
2023-05-10T12:49:52.551Z,101245.66
2023-05-10T12:54:55.799Z,101239.22
2023-05-10T13:00:00.292Z,101255.69
2023-05-10T13:05:03.803Z,101257.91
2023-05-10T13:10:08.181Z,101255.53
2023-05-10T13:15:12.913Z,101256.72
2023-05-10T13:20:16.824Z,101267.50
2023-05-10T13:25:20.165Z,101248.88
2023-05-10T13:30:24.894Z,101269.50
2023-05-10T13:35:28.060Z,101259.47
2023-05-10T13:40:31.021Z,101263.41
2023-05-10T13:45:35.410Z,101254.97
2023-05-10T13:50:38.357Z,101256.78
2023-05-10T13:55:41.342Z,101259.97
2023-05-10T14:00:46.152Z,101265.91
2023-05-10T14:05:51.729Z,101271.00
2023-05-10T14:10:54.921Z,101261.19
2023-05-10T14:16:01.428Z,101256.81
2023-05-10T14:21:05.738Z,101252.41
2023-05-10T14:26:08.989Z,101259.16
2023-05-10T14:31:13.588Z,101252.31
2023-05-10T14:36:16.936Z,101248.16
2023-05-10T14:41:24.057Z,101262.19
2023-05-10T14:46:28.847Z,101262.00
2023-05-10T14:51:32.886Z,101268.13
2023-05-10T14:56:35.998Z,101269.16
2023-05-10T15:01:43.301Z,101260.88
2023-05-10T15:06:47.030Z,101261.41
2023-05-10T15:11:50.008Z,101263.47
2023-05-10T15:16:54.418Z,101260.94
2023-05-10T15:21:57.587Z,101266.63
2023-05-10T15:27:01.116Z,101263.16
2023-05-10T15:32:05.986Z,101268.91
2023-05-10T15:37:09.188Z,101277.06
2023-05-10T15:42:13.087Z,101286.22
2023-05-10T15:47:18.017Z,101291.13
2023-05-10T15:52:22.138Z,101296.06
2023-05-10T15:57:25.321Z,101305.66
2023-05-10T16:02:29.843Z,101296.81
2023-05-10T16:07:33.088Z,101299.53
2023-05-10T16:12:36.244Z,101304.75
2023-05-10T16:17:41.537Z,101309.28
2023-05-10T16:22:45.275Z,101317.34
2023-05-10T16:27:50.725Z,101315.31
2023-05-10T16:32:55.412Z,101311.50
2023-05-10T16:37:58.735Z,101306.38
2023-05-10T16:43:01.843Z,101313.75
2023-05-10T16:48:07.139Z,101314.59
2023-05-10T16:53:11.739Z,101309.69
2023-05-10T16:58:18.310Z,101321.19
2023-05-10T17:03:22.950Z,101332.69
2023-05-10T17:08:26.214Z,101259.25
2023-05-10T17:13:29.672Z,101338.69
2023-05-10T17:18:34.081Z,101334.75
2023-05-10T17:23:37.334Z,101340.00
2023-05-10T17:28:41.771Z,101342.09
2023-05-10T17:33:46.556Z,101338.63
2023-05-10T17:38:50.608Z,101343.69
2023-05-10T17:43:56.217Z,101346.94
2023-05-10T17:49:00.688Z,101360.19
2023-05-10T17:54:03.731Z,101364.53
2023-05-10T17:59:06.759Z,101375.75
2023-05-10T18:04:11.774Z,101375.47
2023-05-10T18:09:16.338Z,101373.28
2023-05-10T18:14:28.508Z,101377.56
2023-05-10T18:19:44.255Z,101371.97
2023-05-10T18:24:48.065Z,101365.91
2023-05-10T18:29:52.257Z,101378.66
2023-05-10T18:34:56.809Z,101368.50
2023-05-10T18:39:59.930Z,101378.19
2023-05-10T18:45:03.572Z,101379.44
2023-05-10T18:50:09.875Z,101372.84
2023-05-10T18:55:13.005Z,101384.75
2023-05-10T19:00:16.507Z,101386.63
2023-05-10T19:05:21.090Z,101381.06
2023-05-10T19:10:24.861Z,101373.59
2023-05-10T19:15:28.235Z,101393.75
2023-05-10T19:20:33.069Z,101398.34
2023-05-10T19:25:36.307Z,101411.53
2023-05-10T19:30:39.615Z,101424.69
2023-05-10T19:35:44.028Z,101422.97
2023-05-10T19:40:47.396Z,101432.44
2023-05-10T19:45:50.796Z,101420.34
2023-05-10T19:51:00.614Z,101437.38
2023-05-10T19:56:04.590Z,101442.66
2023-05-10T20:01:08.336Z,101444.34
2023-05-10T20:06:13.220Z,101440.81
2023-05-10T20:11:16.744Z,101445.28
2023-05-10T20:16:20.117Z,101443.78
2023-05-10T20:21:26.533Z,101444.81
2023-05-10T20:26:29.825Z,101443.06
2023-05-10T20:31:35.594Z,101438.72
2023-05-10T20:36:39.968Z,101444.09
2023-05-10T20:41:43.752Z,101444.03
2023-05-10T20:46:47.081Z,101459.84
2023-05-10T20:51:51.508Z,101442.88
2023-05-10T20:56:54.690Z,101450.88
2023-05-10T21:01:58.196Z,101441.81
2023-05-10T21:07:08.535Z,101438.00
2023-05-10T21:12:17.840Z,101455.66
2023-05-10T21:17:21.039Z,101450.38
2023-05-10T21:22:25.486Z,101454.88
2023-05-10T21:27:30.576Z,101454.13
2023-05-10T21:32:33.647Z,101458.81
2023-05-10T21:37:38.109Z,101449.38
2023-05-10T21:42:41.240Z,101439.72
2023-05-10T21:47:44.647Z,101449.59
2023-05-10T21:52:49.193Z,101449.28
2023-05-10T21:57:52.597Z,101456.44
2023-05-10T22:02:55.678Z,101454.75
2023-05-10T22:08:00.034Z,101444.13
2023-05-10T22:13:03.294Z,101443.06
2023-05-10T22:18:06.501Z,101451.72
2023-05-10T22:23:11.072Z,101421.94
2023-05-10T22:28:14.002Z,101443.28
2023-05-10T22:33:17.282Z,101458.63
2023-05-10T22:38:21.725Z,101458.69
2023-05-10T22:43:24.812Z,101452.50
2023-05-10T22:48:29.607Z,101458.69
2023-05-10T22:53:33.892Z,101458.25
2023-05-10T22:58:37.011Z,101460.78
2023-05-10T23:03:40.211Z,101467.06
2023-05-10T23:08:44.539Z,101460.88
2023-05-10T23:13:47.608Z,101459.94
2023-05-10T23:18:53.233Z,101459.94
2023-05-10T23:23:57.742Z,101465.16
2023-05-10T23:29:01.811Z,101460.28
2023-05-10T23:34:05.162Z,101464.75
2023-05-10T23:39:09.693Z,101464.75
2023-05-10T23:44:13.123Z,101469.97
2023-05-10T23:49:17.411Z,101465.34
2023-05-10T23:54:21.744Z,101476.22
2023-05-10T23:59:24.818Z,101481.41
